createdAt,value
2023-05-11T00:02:16.386Z,101052.25
2023-05-11T00:04:43.820Z,101044.03
2023-05-11T00:07:11.032Z,101039.03
2023-05-11T00:09:38.843Z,101046.91
2023-05-11T00:12:06.341Z,101048.38
2023-05-11T00:14:33.654Z,101049.81
2023-05-11T00:17:00.852Z,101052.03
2023-05-11T00:19:28.261Z,101046.91
2023-05-11T00:21:55.341Z,101043.34
2023-05-11T00:24:22.576Z,101054.31
2023-05-11T00:26:49.561Z,101052.19
2023-05-11T00:29:18.366Z,101046.22
2023-05-11T00:31:48.428Z,101040.25
2023-05-11T00:34:16.365Z,101037.84
2023-05-11T00:36:43.813Z,101032.88
2023-05-11T00:39:12.086Z,101039.16
2023-05-11T00:41:39.365Z,101023.69
2023-05-11T00:44:06.921Z,101015.63
2023-05-11T00:46:34.178Z,101019.50
2023-05-11T00:49:01.555Z,101015.44
2023-05-11T00:51:28.849Z,101020.13
2023-05-11T00:53:56.316Z,101020.75
2023-05-11T00:56:23.602Z,101018.66
2023-05-11T00:58:50.837Z,101017.34
2023-05-11T01:01:19.005Z,101009.97
2023-05-11T01:03:47.522Z,101015.91
2023-05-11T01:06:36.356Z,101010.25
2023-05-11T01:09:22.165Z,101008.34
2023-05-11T01:11:57.184Z,101007.88
2023-05-11T01:14:41.819Z,100997.09
2023-05-11T01:17:23.143Z,101003.19
2023-05-11T01:20:02.832Z,101001.09
2023-05-11T01:22:40.132Z,101001.72
2023-05-11T01:25:35.706Z,100997.19
2023-05-11T01:28:23.611Z,100999.72
2023-05-11T01:30:58.001Z,100998.63
2023-05-11T01:33:33.941Z,101000.41
2023-05-11T01:36:08.065Z,100999.31
2023-05-11T01:38:40.162Z,100996.69
2023-05-11T01:41:20.181Z,100998.47
2023-05-11T01:43:58.597Z,100994.41
2023-05-11T01:46:27.721Z,101002.00
2023-05-11T01:48:57.392Z,101001.66
2023-05-11T01:51:27.746Z,101002.81
2023-05-11T01:53:56.466Z,100996.81
2023-05-11T01:56:25.463Z,100998.75
2023-05-11T01:58:54.422Z,100997.44
2023-05-11T02:01:22.608Z,100996.44
2023-05-11T02:03:52.490Z,101000.31
2023-05-11T02:06:22.817Z,101004.34
2023-05-11T02:08:51.699Z,101003.94
2023-05-11T02:11:20.806Z,101009.25
2023-05-11T02:13:51.746Z,101002.97
2023-05-11T02:16:20.063Z,101000.41
2023-05-11T02:18:49.244Z,101002.53
2023-05-11T02:21:17.557Z,100993.84
2023-05-11T02:23:47.033Z,100993.34
2023-05-11T02:26:16.832Z,100985.25
2023-05-11T02:28:44.206Z,100992.00
2023-05-11T02:31:19.427Z,100988.06
2023-05-11T02:33:52.505Z,100988.03
2023-05-11T02:36:24.089Z,100982.69
2023-05-11T02:38:58.765Z,100980.25
2023-05-11T02:41:28.887Z,100979.59
2023-05-11T02:44:03.093Z,100978.41
2023-05-11T02:46:34.669Z,100975.34
2023-05-11T02:49:05.936Z,100971.63
2023-05-11T02:51:37.263Z,100969.22
2023-05-11T02:54:08.226Z,100973.03
2023-05-11T02:56:39.036Z,100964.03
2023-05-11T02:59:06.997Z,100970.81
2023-05-11T03:01:34.210Z,100965.34
2023-05-11T03:04:04.917Z,100958.28
2023-05-11T03:06:33.635Z,100963.94
2023-05-11T03:09:02.725Z,100953.47
2023-05-11T03:11:33.121Z,100955.41
2023-05-11T03:14:02.628Z,100955.41
2023-05-11T03:16:31.553Z,100960.06
2023-05-11T03:19:01.970Z,100958.75
2023-05-11T03:21:29.201Z,100951.19
2023-05-11T03:23:58.205Z,100959.88
2023-05-11T03:26:28.852Z,100953.28
2023-05-11T03:28:59.380Z,100956.03
2023-05-11T03:31:26.752Z,100948.94
2023-05-11T03:33:54.428Z,100954.41
2023-05-11T03:36:23.210Z,100958.56
2023-05-11T03:38:53.630Z,100958.28
2023-05-11T03:41:22.093Z,100965.47
2023-05-11T03:43:53.716Z,100966.09
2023-05-11T03:46:24.797Z,100965.63
2023-05-11T03:48:54.200Z,100966.72
2023-05-11T03:51:25.375Z,100970.56
2023-05-11T03:53:52.580Z,100973.31
2023-05-11T03:56:21.735Z,100971.88
2023-05-11T03:58:49.813Z,100976.41
2023-05-11T04:01:17.669Z,100982.25
2023-05-11T04:03:53.379Z,100983.72
2023-05-11T04:06:21.942Z,100989.25
2023-05-11T04:08:57.201Z,100990.41
2023-05-11T04:11:24.341Z,100995.56
2023-05-11T04:13:51.434Z,100993.00
2023-05-11T04:16:18.711Z,100998.03
2023-05-11T04:18:46.235Z,101002.38
2023-05-11T04:21:13.402Z,101000.13
2023-05-11T04:23:41.883Z,100995.81
2023-05-11T04:26:09.131Z,100995.28
2023-05-11T04:28:36.197Z,100996.09
2023-05-11T04:31:03.317Z,101006.75
2023-05-11T04:33:30.568Z,100999.25
2023-05-11T04:35:59.025Z,100997.69
2023-05-11T04:38:26.372Z,101006.41
2023-05-11T04:40:54.036Z,101003.41
2023-05-11T04:43:22.591Z,101003.41
2023-05-11T04:45:50.912Z,101004.25
2023-05-11T04:48:22.943Z,101005.09
2023-05-11T04:50:51.804Z,101009.75
2023-05-11T04:53:20.923Z,101002.69
2023-05-11T04:55:48.753Z,101000.59
2023-05-11T04:58:16.130Z,100997.22
2023-05-11T05:00:43.304Z,101003.41
2023-05-11T05:03:10.413Z,101003.19
2023-05-11T05:05:37.564Z,101005.91
2023-05-11T05:08:04.683Z,101002.75
2023-05-11T05:10:32.473Z,101004.22
2023-05-11T05:12:59.509Z,101003.63
2023-05-11T05:15:26.960Z,101006.19
2023-05-11T05:17:54.070Z,100999.13
2023-05-11T05:20:21.426Z,101000.78
2023-05-11T05:22:48.495Z,101003.59
2023-05-11T05:25:15.574Z,100999.59
2023-05-11T05:27:43.204Z,101004.09
2023-05-11T05:30:16.775Z,101002.84
2023-05-11T05:32:45.282Z,101009.94
2023-05-11T05:35:12.372Z,101012.88
2023-05-11T05:37:40.724Z,101009.94
2023-05-11T05:40:08.615Z,101015.25
2023-05-11T05:42:41.037Z,101025.44
2023-05-11T05:45:13.860Z,101010.56
2023-05-11T05:47:42.296Z,101015.50
2023-05-11T05:50:09.948Z,101011.56
2023-05-11T05:52:37.599Z,101017.09
2023-05-11T05:55:05.176Z,101012.59
2023-05-11T05:57:32.742Z,101008.09
2023-05-11T05:59:59.811Z,101018.38
2023-05-11T06:02:28.047Z,101013.41
2023-05-11T06:04:55.300Z,101019.53
2023-05-11T06:07:22.536Z,101022.19
2023-05-11T06:09:50.413Z,101017.81
2023-05-11T06:12:17.449Z,100998.78
2023-05-11T06:14:57.285Z,101009.16
2023-05-11T06:17:24.914Z,101013.91
2023-05-11T06:19:52.524Z,101006.72
2023-05-11T06:22:23.760Z,101007.38
2023-05-11T06:24:51.343Z,101016.13
2023-05-11T06:27:19.650Z,101010.47
2023-05-11T06:29:46.830Z,101014.66
2023-05-11T06:32:15.365Z,101015.00
2023-05-11T06:34:43.078Z,101010.72
2023-05-11T06:37:11.093Z,101014.66
2023-05-11T06:39:38.159Z,101019.78
2023-05-11T06:42:08.248Z,101018.13
2023-05-11T06:44:35.501Z,101019.78
2023-05-11T06:47:07.560Z,101024.69
2023-05-11T06:49:34.902Z,101031.88
2023-05-11T06:52:02.061Z,101033.03
2023-05-11T06:54:29.089Z,101029.00
2023-05-11T06:56:56.121Z,101037.38
2023-05-11T06:59:23.218Z,101033.47
2023-05-11T07:01:50.241Z,101035.03
2023-05-11T07:04:17.409Z,101025.50
2023-05-11T07:06:44.412Z,101035.47
2023-05-11T07:09:11.762Z,101034.66
2023-05-11T07:11:38.810Z,101038.25
2023-05-11T07:14:06.116Z,101025.88
2023-05-11T07:16:33.214Z,101035.47
2023-05-11T07:19:00.538Z,101033.06
2023-05-11T07:21:27.543Z,101027.84
2023-05-11T07:23:54.736Z,101033.06
2023-05-11T07:26:22.254Z,101032.25
2023-05-11T07:28:50.663Z,101038.66
2023-05-11T07:31:17.806Z,101033.88
2023-05-11T07:33:45.012Z,101033.47
2023-05-11T07:36:12.152Z,101033.06
2023-05-11T07:38:39.765Z,101032.28
2023-05-11T07:41:09.486Z,101036.59
2023-05-11T07:43:38.052Z,101031.81
2023-05-11T07:46:05.314Z,101035.00
2023-05-11T07:48:32.521Z,101038.56
2023-05-11T07:51:00.215Z,101035.03
2023-05-11T07:53:28.076Z,101043.03
2023-05-11T07:55:55.292Z,101042.56
2023-05-11T07:58:22.351Z,101037.03
2023-05-11T08:00:49.650Z,101038.22
2023-05-11T08:03:16.849Z,101043.03
2023-05-11T08:05:44.151Z,101044.22
2023-05-11T08:08:11.222Z,101043.41
2023-05-11T08:10:38.421Z,101035.03
2023-05-11T08:13:05.522Z,101043.78
2023-05-11T08:15:33.854Z,101035.81
2023-05-11T08:18:01.661Z,101033.72
2023-05-11T08:20:28.958Z,101043.19
2023-05-11T08:22:56.181Z,101042.84
2023-05-11T08:25:23.291Z,101042.50
2023-05-11T08:27:50.486Z,101034.13
2023-05-11T08:30:17.918Z,101041.06
2023-05-11T08:35:15.565Z,101035.44
2023-05-11T08:37:42.631Z,101045.00
2023-05-11T08:40:13.236Z,101053.00
2023-05-11T08:42:46.999Z,101046.41
2023-05-11T08:45:14.685Z,101050.59
2023-05-11T08:47:42.130Z,101050.34
2023-05-11T08:50:09.602Z,101044.19
2023-05-11T08:52:36.765Z,101043.69
2023-05-11T08:55:04.228Z,101042.94
2023-05-11T08:57:32.536Z,101040.13
2023-05-11T09:00:02.338Z,101045.41
2023-05-11T09:02:29.564Z,101040.91
2023-05-11T09:04:58.895Z,101046.19
2023-05-11T09:07:27.277Z,101037.81
2023-05-11T09:09:55.081Z,101030.34
2023-05-11T09:12:26.434Z,101034.16
2023-05-11T09:14:53.603Z,101039.75
2023-05-11T09:17:21.183Z,101033.09
2023-05-11T09:20:09.411Z,101035.16
2023-05-11T09:22:47.137Z,101034.63
2023-05-11T09:25:17.216Z,101030.75
2023-05-11T09:27:45.647Z,101026.38
2023-05-11T09:32:53.497Z,101035.16
2023-05-11T09:35:26.900Z,101038.66
2023-05-11T09:38:11.547Z,101035.25
2023-05-11T09:40:43.558Z,101038.03
2023-05-11T09:43:28.819Z,101038.91
2023-05-11T09:45:57.982Z,101035.34
2023-05-11T09:48:30.410Z,101036.69
2023-05-11T09:51:06.002Z,101039.00
2023-05-11T09:53:41.325Z,101031.34
2023-05-11T09:56:08.960Z,101032.59
2023-05-11T09:58:58.359Z,101038.09
2023-05-11T10:01:33.343Z,101030.34
2023-05-11T10:04:17.737Z,101015.72
2023-05-11T10:06:53.892Z,101017.69
2023-05-11T10:09:24.800Z,101019.56
2023-05-11T10:11:54.178Z,101009.94
2023-05-11T10:14:22.739Z,101004.09
2023-05-11T10:16:51.258Z,100998.41
2023-05-11T10:19:19.790Z,100997.91
2023-05-11T10:21:47.072Z,100994.38
2023-05-11T10:24:14.554Z,100999.03
2023-05-11T10:26:42.742Z,100999.13
2023-05-11T10:29:11.050Z,101002.63
2023-05-11T10:31:38.447Z,100989.22
2023-05-11T10:34:07.088Z,100983.94
2023-05-11T10:36:35.028Z,100978.16
2023-05-11T10:39:02.230Z,100990.34
2023-05-11T10:41:38.394Z,100984.59
2023-05-11T10:44:29.365Z,100981.97
2023-05-11T10:47:37.793Z,100990.53
2023-05-11T10:50:32.839Z,100984.16
2023-05-11T10:53:18.341Z,100976.84
2023-05-11T10:56:07.708Z,100969.75
2023-05-11T10:58:55.105Z,100976.81
2023-05-11T11:01:40.986Z,100967.78
2023-05-11T11:04:13.322Z,100971.00
2023-05-11T11:06:42.761Z,100973.78
2023-05-11T11:09:16.024Z,100968.25
2023-05-11T11:11:46.630Z,100966.84
2023-05-11T11:14:15.676Z,100966.16
2023-05-11T11:17:14.760Z,100963.91
2023-05-11T11:19:42.974Z,100970.56
2023-05-11T11:22:39.133Z,100967.50
2023-05-11T11:25:07.140Z,100974.63
2023-05-11T11:27:49.251Z,100974.19
2023-05-11T11:30:20.196Z,100973.25
2023-05-11T11:32:49.983Z,100962.53
2023-05-11T11:35:42.323Z,100968.59
2023-05-11T11:38:29.612Z,100965.06
2023-05-11T11:40:56.948Z,100966.25
2023-05-11T11:43:43.740Z,100968.53
2023-05-11T11:46:26.524Z,100969.03
2023-05-11T11:49:07.625Z,100967.28
2023-05-11T11:51:37.710Z,100969.53
2023-05-11T11:54:05.098Z,100966.09
2023-05-11T11:56:32.486Z,100962.63
2023-05-11T11:59:01.095Z,100967.41
2023-05-11T12:01:30.005Z,100962.16
2023-05-11T12:04:17.558Z,100957.81
2023-05-11T12:06:51.190Z,100959.59
2023-05-11T12:09:23.224Z,100963.19
2023-05-11T12:11:50.738Z,100965.44
2023-05-11T12:14:18.329Z,100968.47
2023-05-11T12:17:00.839Z,100970.84
2023-05-11T12:19:28.501Z,100972.16
2023-05-11T12:21:55.604Z,100964.53
2023-05-11T12:24:22.790Z,100966.25
2023-05-11T12:26:49.890Z,100975.88
2023-05-11T12:29:18.687Z,100975.38
2023-05-11T12:31:48.853Z,100963.03
2023-05-11T12:34:23.286Z,100971.00
2023-05-11T12:36:52.281Z,100975.53
2023-05-11T12:39:27.243Z,100974.13
2023-05-11T12:41:56.636Z,100978.00
2023-05-11T12:44:26.747Z,100974.50
2023-05-11T12:46:54.503Z,100973.09
2023-05-11T12:49:26.573Z,100974.50
2023-05-11T12:52:08.121Z,100975.34
2023-05-11T12:54:38.377Z,100974.78
2023-05-11T12:57:07.876Z,100971.28
2023-05-11T12:59:35.173Z,100984.56
2023-05-11T13:02:13.237Z,100974.06
2023-05-11T13:04:41.661Z,100974.72
2023-05-11T13:07:09.725Z,100975.22
2023-05-11T13:09:37.278Z,100973.38
2023-05-11T13:12:19.846Z,100973.38
2023-05-11T13:14:49.549Z,100969.41
2023-05-11T13:17:37.307Z,100975.78
2023-05-11T13:20:27.673Z,100961.34
2023-05-11T13:23:09.227Z,100966.38
2023-05-11T13:25:53.476Z,100960.44
2023-05-11T13:28:24.312Z,100966.53
2023-05-11T13:31:01.470Z,100959.00
2023-05-11T13:33:28.889Z,100956.09
2023-05-11T13:35:56.111Z,100963.53
2023-05-11T13:38:23.223Z,100958.47
2023-05-11T13:40:50.232Z,100950.63
2023-05-11T13:43:17.421Z,100954.03
2023-05-11T13:45:44.452Z,100945.94
2023-05-11T13:48:11.576Z,100943.19
2023-05-11T13:50:38.695Z,100944.91
2023-05-11T13:53:05.795Z,100942.13
2023-05-11T13:55:32.872Z,100937.22
2023-05-11T13:58:00.036Z,100936.91
2023-05-11T14:00:27.340Z,100930.16
2023-05-11T14:02:54.656Z,100933.53
2023-05-11T14:05:22.154Z,100932.22
2023-05-11T14:07:49.509Z,100934.41
2023-05-11T14:10:17.819Z,100938.53
2023-05-11T14:12:45.713Z,100934.31
2023-05-11T14:15:12.793Z,100933.53
2023-05-11T14:17:43.038Z,100937.38
2023-05-11T14:20:12.464Z,100951.84
2023-05-11T14:22:41.009Z,100947.13
2023-05-11T14:25:08.661Z,100955.06
2023-05-11T14:27:36.490Z,100953.91
2023-05-11T14:30:03.695Z,100943.97
2023-05-11T14:32:30.752Z,100954.63
2023-05-11T14:34:57.928Z,100945.91
2023-05-11T14:37:24.928Z,100954.69
2023-05-11T14:39:51.973Z,100951.25
2023-05-11T14:42:19.264Z,100946.84
2023-05-11T14:44:46.526Z,100953.50
2023-05-11T14:47:14.103Z,100951.66
2023-05-11T14:49:41.130Z,100959.22
2023-05-11T14:52:08.777Z,100947.22
2023-05-11T14:54:35.968Z,100961.00
2023-05-11T14:57:04.537Z,100955.97
2023-05-11T14:59:31.653Z,100951.41
2023-05-11T15:01:58.873Z,100961.38
2023-05-11T15:04:27.152Z,100959.19
2023-05-11T15:06:54.984Z,100955.22
2023-05-11T15:09:22.210Z,100961.66
2023-05-11T15:11:49.250Z,100963.75
2023-05-11T15:14:17.359Z,100961.69
2023-05-11T15:16:46.245Z,100961.44
2023-05-11T15:19:13.696Z,100954.34
2023-05-11T15:21:40.893Z,100956.81
2023-05-11T15:24:10.680Z,100948.44
2023-05-11T15:26:38.498Z,100951.28
2023-05-11T15:29:05.546Z,100956.13
2023-05-11T15:31:33.019Z,100956.47
2023-05-11T15:34:00.231Z,100942.59
2023-05-11T15:36:29.733Z,100957.50
2023-05-11T15:38:57.574Z,100946.53
2023-05-11T15:41:24.723Z,100954.66
2023-05-11T15:43:54.673Z,100957.78
2023-05-11T15:46:22.862Z,100957.66
2023-05-11T15:48:50.045Z,100960.06
2023-05-11T15:51:17.393Z,100961.00
2023-05-11T15:53:44.608Z,100952.59
2023-05-11T15:56:11.939Z,100957.16
2023-05-11T15:58:39.101Z,100960.03
2023-05-11T16:01:17.006Z,100954.53
2023-05-11T16:03:44.325Z,100961.53
2023-05-11T16:06:11.404Z,100958.19
2023-05-11T16:08:41.979Z,100959.34
2023-05-11T16:11:12.027Z,100960.69
2023-05-11T16:13:39.224Z,100955.41
2023-05-11T16:16:07.320Z,100952.34
2023-05-11T16:18:34.854Z,100955.38
2023-05-11T16:21:04.420Z,100957.31
2023-05-11T16:23:31.686Z,100957.41
2023-05-11T16:25:58.824Z,100961.44
2023-05-11T16:28:26.176Z,100966.16
2023-05-11T16:30:53.231Z,100968.56
2023-05-11T16:33:20.683Z,100957.41
2023-05-11T16:35:47.772Z,100968.56
2023-05-11T16:38:18.691Z,100960.63
2023-05-11T16:40:45.830Z,100970.84
2023-05-11T16:43:12.969Z,100971.91
2023-05-11T16:45:40.177Z,100974.78
2023-05-11T16:48:07.398Z,100980.06
2023-05-11T16:50:34.431Z,100984.78
2023-05-11T16:53:01.791Z,100978.56
2023-05-11T16:55:30.186Z,100980.97
2023-05-11T16:57:57.491Z,100982.13
2023-05-11T17:00:26.130Z,100981.19
2023-05-11T17:02:53.828Z,100984.88
2023-05-11T17:05:22.000Z,100980.53
2023-05-11T17:07:49.161Z,100983.63
2023-05-11T17:10:16.356Z,100981.91
2023-05-11T17:12:43.424Z,100986.00
2023-05-11T17:15:11.025Z,100984.25
2023-05-11T17:17:38.356Z,100985.53
2023-05-11T17:20:07.687Z,100992.66
2023-05-11T17:22:35.412Z,101000.91
2023-05-11T17:25:05.665Z,100993.78
2023-05-11T17:27:32.776Z,100989.44
2023-05-11T17:29:59.832Z,100999.06
2023-05-11T17:32:27.206Z,100995.41
2023-05-11T17:34:54.584Z,101001.13
2023-05-11T17:37:31.204Z,100997.44
2023-05-11T17:40:02.514Z,101000.19
2023-05-11T17:42:29.817Z,101002.16
2023-05-11T17:44:57.436Z,101008.94
2023-05-11T17:47:24.720Z,101004.09
2023-05-11T17:49:51.692Z,101015.31
2023-05-11T17:52:18.794Z,101009.22
2023-05-11T17:54:45.880Z,101011.28
2023-05-11T17:57:13.188Z,101021.06
2023-05-11T17:59:40.273Z,101019.09
2023-05-11T18:02:07.798Z,101031.59
2023-05-11T18:04:34.950Z,101021.38
2023-05-11T18:07:02.082Z,101025.88
2023-05-11T18:09:29.072Z,101017.88
2023-05-11T18:11:56.214Z,101027.28
2023-05-11T18:14:23.313Z,101024.19
2023-05-11T18:16:52.695Z,101018.81
2023-05-11T18:19:19.836Z,101025.34
2023-05-11T18:21:46.859Z,101021.69
2023-05-11T18:24:18.369Z,101022.81
2023-05-11T18:26:45.577Z,101026.03
2023-05-11T18:29:12.907Z,101030.50
2023-05-11T18:31:40.106Z,101031.47
2023-05-11T18:34:07.513Z,101028.22
2023-05-11T18:36:34.789Z,101028.88
2023-05-11T18:39:02.024Z,101037.50
2023-05-11T18:41:29.247Z,101048.41
2023-05-11T18:43:56.609Z,101049.19
2023-05-11T18:46:23.836Z,101043.56
2023-05-11T18:48:52.873Z,101042.41
2023-05-11T18:51:22.963Z,101042.97
2023-05-11T18:53:50.418Z,101055.28
2023-05-11T18:56:17.623Z,101056.75
2023-05-11T18:58:45.589Z,101065.13
2023-05-11T19:01:13.048Z,101056.75
2023-05-11T19:03:40.231Z,101069.59
2023-05-11T19:06:07.838Z,101076.09
2023-05-11T19:08:35.599Z,101077.44
2023-05-11T19:11:10.758Z,101073.47
2023-05-11T19:13:38.031Z,101080.44
2023-05-11T19:16:05.375Z,101079.97
2023-05-11T19:18:35.623Z,101094.50
2023-05-11T19:21:06.751Z,101096.00
2023-05-11T19:23:34.029Z,101104.47
2023-05-11T19:26:01.384Z,101111.56
2023-05-11T19:28:28.448Z,101107.56
2023-05-11T19:31:03.628Z,101101.28
2023-05-11T19:33:30.899Z,101096.44
2023-05-11T19:35:58.008Z,101094.69
2023-05-11T19:38:26.212Z,101095.34
2023-05-11T19:40:53.777Z,101095.91
2023-05-11T19:43:21.400Z,101107.56
2023-05-11T19:45:48.496Z,101109.88
2023-05-11T19:48:17.165Z,101099.41
2023-05-11T19:50:44.932Z,101110.28
2023-05-11T19:53:12.507Z,101112.06
2023-05-11T19:55:41.526Z,101129.22
2023-05-11T19:58:09.724Z,101120.69
2023-05-11T20:00:38.751Z,101126.69
2023-05-11T20:03:05.905Z,101136.72
2023-05-11T20:05:33.874Z,101141.38
2023-05-11T20:08:01.691Z,101151.22
2023-05-11T20:10:29.181Z,101153.31
2023-05-11T20:12:57.039Z,101154.47
2023-05-11T20:15:24.197Z,101149.13
2023-05-11T20:17:51.339Z,101144.97
2023-05-11T20:20:18.850Z,101146.09
2023-05-11T20:22:46.150Z,101158.22
2023-05-11T20:25:18.415Z,101150.66
2023-05-11T20:27:47.049Z,101146.97
2023-05-11T20:30:15.014Z,101144.88
2023-05-11T20:34:06.915Z,101151.97
2023-05-11T20:35:29.934Z,101164.91
2023-05-11T20:37:56.958Z,101162.97
2023-05-11T20:40:25.539Z,101167.81
2023-05-11T20:42:52.759Z,101168.75
2023-05-11T20:45:19.803Z,101164.16
2023-05-11T20:47:47.094Z,101172.09
2023-05-11T20:50:15.378Z,101169.81
2023-05-11T20:52:42.553Z,101171.44
2023-05-11T20:55:09.714Z,101173.03
2023-05-11T20:57:36.880Z,101176.44
2023-05-11T21:00:07.731Z,101174.38
2023-05-11T21:02:35.321Z,101189.75
2023-05-11T21:05:02.778Z,101177.50
2023-05-11T21:07:30.198Z,101179.00
2023-05-11T21:09:57.370Z,101180.47
2023-05-11T21:12:24.576Z,101179.53
2023-05-11T21:14:51.683Z,101182.44
2023-05-11T21:17:18.985Z,101187.81
2023-05-11T21:19:46.690Z,101191.22
2023-05-11T21:22:13.875Z,101183.13
2023-05-11T21:24:41.327Z,101188.63
2023-05-11T21:27:08.501Z,101192.88
2023-05-11T21:29:36.161Z,101198.22
2023-05-11T21:32:03.561Z,101199.81
2023-05-11T21:34:30.611Z,101203.38
2023-05-11T21:36:57.782Z,101203.72
2023-05-11T21:39:25.192Z,101205.47
2023-05-11T21:41:52.332Z,101204.53
2023-05-11T21:44:20.389Z,101214.72
2023-05-11T21:46:47.770Z,101216.50
2023-05-11T21:49:14.873Z,101208.28
2023-05-11T21:51:42.699Z,101201.97
2023-05-11T21:54:09.741Z,101216.81
2023-05-11T21:56:37.076Z,101202.63
2023-05-11T21:59:04.120Z,101214.72
2023-05-11T22:01:31.447Z,101213.94
2023-05-11T22:04:01.189Z,101215.88
2023-05-11T22:06:28.468Z,101213.63
2023-05-11T22:08:55.697Z,101219.91
2023-05-11T22:11:22.792Z,101220.72
2023-05-11T22:13:49.990Z,101214.88
2023-05-11T22:16:17.287Z,101208.59
2023-05-11T22:18:44.353Z,101208.59
2023-05-11T22:21:11.879Z,101207.78
2023-05-11T22:23:38.868Z,101213.63
2023-05-11T22:26:06.102Z,101220.22
2023-05-11T22:28:33.156Z,101218.28
2023-05-11T22:31:00.719Z,101207.28
2023-05-11T22:33:27.829Z,101202.63
2023-05-11T22:35:54.933Z,101209.25
2023-05-11T22:38:21.949Z,101207.97
2023-05-11T22:40:49.064Z,101207.50
2023-05-11T22:43:16.119Z,101200.22
2023-05-11T22:45:43.381Z,101212.19
2023-05-11T22:48:10.592Z,101207.63
2023-05-11T22:50:37.729Z,101205.69
2023-05-11T22:53:04.961Z,101212.19
2023-05-11T22:55:32.139Z,101213.28
2023-05-11T22:57:59.240Z,101208.44
2023-05-11T23:00:26.265Z,101205.72
2023-05-11T23:02:53.543Z,101196.22
2023-05-11T23:05:20.658Z,101193.31
2023-05-11T23:07:47.776Z,101204.59
2023-05-11T23:10:14.790Z,101202.19
2023-05-11T23:12:41.907Z,101198.97
2023-05-11T23:15:09.915Z,101194.63
2023-05-11T23:17:37.205Z,101196.72
2023-05-11T23:20:04.974Z,101191.88
2023-05-11T23:22:32.209Z,101190.22
2023-05-11T23:25:00.617Z,101188.16
2023-05-11T23:27:27.784Z,101185.25
2023-05-11T23:29:54.903Z,101179.28
2023-05-11T23:32:37.183Z,101192.22
2023-05-11T23:35:04.424Z,101193.03
2023-05-11T23:37:31.602Z,101193.66
2023-05-11T23:39:58.548Z,101191.56
2023-05-11T23:42:25.674Z,101188.66
2023-05-11T23:44:52.729Z,101192.03
2023-05-11T23:47:19.809Z,101178.97
2023-05-11T23:49:47.057Z,101187.19
2023-05-11T23:52:14.145Z,101187.34
2023-05-11T23:54:41.257Z,101193.19
2023-05-11T23:57:08.284Z,101194.31
2023-05-11T23:59:35.513Z,101194.63
